Time;durP1;ratioP1;P1;durP2;ratioP2;P2;SDS_P1;SDS_P2;PMS_P1;PMS_P2;Temp;Humidity;BMP_temperature;BMP_pressure;BME280_temperature;BME280_humidity;BME280_pressure;Samples;Min_cycle;Max_cycle;Signal;HPM_P1;HPM_P2
2023/01/08 00:00:49;;;;;;;6.20;3.65;;;;;;;5.86;100.00;98227.97;5011376;28;20017;-71
2023/01/08 00:03:14;;;;;;;7.10;3.75;;;;;;;5.86;100.00;98226.09;5005639;28;20047;-74
2023/01/08 00:05:40;;;;;;;6.45;3.72;;;;;;;5.89;100.00;98223.06;4991743;28;20041;-70
2023/01/08 00:08:07;;;;;;;6.53;3.58;;;;;;;6.08;100.00;98237.78;5010974;28;20030;-71
2023/01/08 00:10:33;;;;;;;7.60;3.92;;;;;;;6.08;100.00;98215.47;5011374;28;20684;-71
2023/01/08 00:12:59;;;;;;;7.72;3.80;;;;;;;6.13;100.00;98213.03;5007661;28;20057;-70
2023/01/08 00:15:24;;;;;;;9.80;3.75;;;;;;;6.01;100.00;98206.50;5011627;28;20080;-70
2023/01/08 00:17:50;;;;;;;7.80;3.72;;;;;;;5.92;100.00;98200.34;5010640;28;20451;-71
2023/01/08 00:20:15;;;;;;;8.15;3.67;;;;;;;5.86;100.00;98207.31;4989524;28;20037;-71
2023/01/08 00:22:40;;;;;;;8.13;4.07;;;;;;;5.78;100.00;98211.97;5004364;28;20165;-70
2023/01/08 00:25:06;;;;;;;6.03;3.17;;;;;;;5.75;100.00;98215.84;5010260;28;20022;-69
2023/01/08 00:27:31;;;;;;;4.97;3.55;;;;;;;5.64;100.00;98197.56;5011046;28;20476;-70
2023/01/08 00:29:57;;;;;;;7.57;3.92;;;;;;;5.65;100.00;98204.56;5009344;28;20108;-70
2023/01/08 00:32:22;;;;;;;7.05;3.58;;;;;;;5.69;100.00;98203.19;5007752;28;20029;-70
2023/01/08 00:34:47;;;;;;;5.95;3.15;;;;;;;5.78;100.00;98209.28;5009521;28;20017;-74
2023/01/08 00:37:14;;;;;;;5.63;3.45;;;;;;;5.64;100.00;98194.88;5007252;28;20033;-70
2023/01/08 00:39:39;;;;;;;5.90;3.25;;;;;;;5.67;100.00;98202.53;5009727;28;20025;-69
2023/01/08 00:42:04;;;;;;;7.88;3.30;;;;;;;5.67;100.00;98207.91;5008955;28;21279;-70
2023/01/08 00:44:29;;;;;;;8.70;3.25;;;;;;;5.45;100.00;98183.69;5011135;28;20026;-72
2023/01/08 00:46:55;;;;;;;7.90;3.80;;;;;;;5.44;100.00;98175.81;5008697;28;20099;-70
2023/01/08 00:49:20;;;;;;;7.47;3.90;;;;;;;5.53;100.00;98184.59;5003727;28;20029;-70
2023/01/08 00:51:45;;;;;;;6.70;3.72;;;;;;;5.54;100.00;98168.31;5009468;28;20022;-69
2023/01/08 00:54:11;;;;;;;6.65;3.67;;;;;;;5.61;100.00;98179.16;5009171;28;20443;-69
2023/01/08 00:56:36;;;;;;;7.90;3.67;;;;;;;5.57;100.00;98159.06;5010275;28;20030;-71
2023/01/08 00:59:02;;;;;;;16.60;4.10;;;;;;;5.52;100.00;98135.47;5006112;28;20380;-70
2023/01/08 01:01:28;;;;;;;6.55;3.63;;;;;;;5.59;100.00;98147.13;5010589;28;20108;-70
2023/01/08 01:03:53;;;;;;;7.72;3.50;;;;;;;5.54;100.00;98146.84;4993349;28;20453;-70
2023/01/08 01:06:18;;;;;;;7.60;3.60;;;;;;;5.47;100.00;98137.88;5008798;28;20037;-73
2023/01/08 01:08:44;;;;;;;5.57;3.53;;;;;;;5.69;100.00;98176.34;5006963;28;20033;-72
2023/01/08 01:11:27;;;;;;;6.40;3.80;;;;;;;5.66;100.00;98163.31;4993307;28;20068;-70
2023/01/08 01:13:55;;;;;;;7.20;4.25;;;;;;;5.71;100.00;98158.19;5008935;28;20029;-77
2023/01/08 01:16:21;;;;;;;6.55;3.65;;;;;;;5.72;100.00;98159.88;5012797;28;20017;-71
2023/01/08 01:18:47;;;;;;;5.57;3.60;;;;;;;5.78;100.00;98158.28;5011190;28;20025;-71
2023/01/08 01:21:28;;;;;;;7.30;3.78;;;;;;;5.68;100.00;98139.78;5010434;28;20369;-73
2023/01/08 01:23:56;;;;;;;7.57;3.70;;;;;;;5.78;100.00;98131.44;4986504;28;20381;-70
2023/01/08 01:26:23;;;;;;;5.18;3.15;;;;;;;5.79;100.00;98149.19;5013189;28;20495;-69
2023/01/08 01:28:50;;;;;;;5.80;3.45;;;;;;;5.81;100.00;98147.16;5008932;28;20025;-69
2023/01/08 01:31:17;;;;;;;5.90;3.10;;;;;;;5.79;100.00;98151.88;5006635;28;20052;-70
2023/01/08 01:33:43;;;;;;;6.00;3.20;;;;;;;5.78;100.00;98160.97;5012500;28;20056;-69
2023/01/08 01:36:11;;;;;;;6.47;3.47;;;;;;;5.71;100.00;98151.00;5013015;28;20034;-69
2023/01/08 01:38:36;;;;;;;6.13;3.58;;;;;;;5.86;100.00;98168.91;5010692;28;20165;-74
2023/01/08 01:41:02;;;;;;;6.53;3.28;;;;;;;5.83;100.00;98155.88;5003648;28;20171;-71
2023/01/08 01:43:36;;;;;;;7.10;3.83;;;;;;;5.85;100.00;98143.09;5011989;28;20069;-73
2023/01/08 01:46:03;;;;;;;7.40;3.38;;;;;;;5.85;100.00;98168.09;4994418;28;20034;-70
2023/01/08 01:48:29;;;;;;;4.68;2.90;;;;;;;5.85;100.00;98157.34;5011466;28;20033;-70
2023/01/08 01:50:54;;;;;;;6.15;3.25;;;;;;;5.90;100.00;98165.66;5009154;28;20046;-69
2023/01/08 01:53:29;;;;;;;5.97;3.35;;;;;;;5.91;100.00;98153.88;5005266;28;20018;-70
2023/01/08 01:55:56;;;;;;;6.50;3.22;;;;;;;5.98;100.00;98162.06;5012063;28;20120;-70
2023/01/08 01:58:27;;;;;;;5.35;2.92;;;;;;;5.99;100.00;98157.53;5005270;28;20048;-71
2023/01/08 02:00:55;;;;;;;4.05;2.88;;;;;;;5.94;100.00;98144.66;5010255;28;20014;-72
2023/01/08 02:03:23;;;;;;;6.07;3.15;;;;;;;5.89;100.00;98147.91;4990636;28;20026;-70
2023/01/08 02:05:50;;;;;;;5.40;2.70;;;;;;;6.02;100.00;98162.50;5014562;28;20076;-70
2023/01/08 02:08:46;;;;;;;8.45;3.35;;;;;;;5.97;100.00;98146.97;4989457;28;20041;-76
2023/01/08 02:11:22;;;;;;;5.85;2.90;;;;;;;6.02;100.00;98157.13;5013338;28;20649;-69
2023/01/08 02:13:59;;;;;;;4.93;3.25;;;;;;;5.86;100.00;98129.47;5013435;28;20042;-69
2023/01/08 02:16:24;;;;;;;4.20;2.70;;;;;;;6.12;100.00;98147.75;5008764;28;20057;-69
2023/01/08 02:18:58;;;;;;;4.85;2.72;;;;;;;6.10;100.00;98132.84;5007619;28;20074;-70
2023/01/08 02:21:45;;;;;;;4.85;2.75;;;;;;;6.23;100.00;98137.50;5006267;28;20522;-71
2023/01/08 02:24:15;;;;;;;6.32;3.22;;;;;;;6.36;100.00;98122.34;5013619;28;20116;-70
2023/01/08 02:26:41;;;;;;;4.72;2.72;;;;;;;6.42;100.00;98128.81;5015506;28;20633;-70
2023/01/08 02:29:10;;;;;;;5.50;3.00;;;;;;;6.52;100.00;98120.41;5010852;28;20069;-70
2023/01/08 02:31:39;;;;;;;5.50;3.03;;;;;;;6.52;100.00;98107.84;5001711;28;20026;-70
2023/01/08 02:34:05;;;;;;;6.03;3.00;;;;;;;6.48;100.00;98103.84;5014928;28;20404;-70
2023/01/08 02:36:43;;;;;;;11.20;2.97;;;;;;;6.52;100.00;98106.97;5014944;28;20084;-70
2023/01/08 02:39:43;;;;;;;5.85;3.30;;;;;;;6.54;100.00;98095.00;5011086;28;20043;-73
2023/01/08 02:42:22;;;;;;;7.10;3.08;;;;;;;6.50;100.00;98096.44;5007423;28;20061;-70
2023/01/08 02:45:15;;;;;;;4.30;2.45;;;;;;;6.53;100.00;98068.34;5015168;28;20047;-70
2023/01/08 02:47:48;;;;;;;6.03;2.70;;;;;;;6.47;100.00;98077.16;4997102;28;20459;-73
2023/01/08 02:50:28;;;;;;;6.55;2.80;;;;;;;6.44;100.00;98080.25;5010101;28;20022;-70
2023/01/08 02:53:08;;;;;;;5.50;3.30;;;;;;;6.36;100.00;98079.34;5012923;28;20049;-70
2023/01/08 02:55:36;;;;;;;6.10;3.10;;;;;;;6.38;100.00;98072.97;5015166;28;20109;-70
2023/01/08 02:58:04;;;;;;;5.82;3.70;;;;;;;6.42;100.00;98071.53;5015033;28;20387;-70
2023/01/08 03:00:30;;;;;;;4.05;2.92;;;;;;;6.47;100.00;98069.09;5012111;28;20026;-70
2023/01/08 03:03:21;;;;;;;4.28;2.63;;;;;;;6.48;100.00;98068.91;5008421;28;20065;-71
2023/01/08 03:05:59;;;;;;;6.03;3.15;;;;;;;6.60;100.00;98050.38;5013301;28;20022;-70
2023/01/08 03:08:25;;;;;;;4.25;2.75;;;;;;;6.48;100.00;98025.09;5007810;28;20034;-70
2023/01/08 03:11:02;;;;;;;4.25;2.80;;;;;;;6.47;100.00;98021.59;5010253;28;20525;-71
2023/01/08 03:13:39;;;;;;;4.15;2.67;;;;;;;6.62;100.00;98050.19;4994151;28;20066;-70
2023/01/08 03:16:10;;;;;;;6.80;2.90;;;;;;;6.56;100.00;98046.44;4989364;28;20037;-72
2023/01/08 03:18:44;;;;;;;5.63;3.03;;;;;;;6.58;100.00;98047.09;5010259;28;20030;-71
2023/01/08 03:21:12;;;;;;;7.88;2.97;;;;;;;6.55;100.00;98034.06;5013857;28;20554;-70
2023/01/08 03:23:39;;;;;;;5.60;2.75;;;;;;;6.56;100.00;98028.47;5014569;28;20057;-70
2023/01/08 03:26:05;;;;;;;5.63;3.25;;;;;;;6.54;100.00;98013.56;5014068;28;20156;-70
2023/01/08 03:28:41;;;;;;;5.28;2.97;;;;;;;6.75;100.00;98037.66;5011233;28;20032;-71
2023/01/08 03:31:07;;;;;;;4.53;2.78;;;;;;;6.76;100.00;98036.66;5013389;28;20026;-72
2023/01/08 03:33:34;;;;;;;5.03;2.88;;;;;;;6.65;100.00;98014.88;4996418;28;20071;-71
2023/01/08 03:36:02;;;;;;;7.93;3.45;;;;;;;6.63;100.00;98016.91;5013691;28;20447;-69
2023/01/08 03:38:39;;;;;;;4.72;2.85;;;;;;;6.75;100.00;98034.97;5012902;28;20033;-70
2023/01/08 03:41:10;;;;;;;4.50;2.70;;;;;;;6.74;100.00;98027.97;4995018;28;20025;-73
2023/01/08 03:43:35;;;;;;;4.82;2.90;;;;;;;6.73;100.00;98025.44;5013655;28;20387;-70
2023/01/08 03:46:05;;;;;;;6.15;2.65;;;;;;;6.66;100.00;98008.47;5015430;28;20029;-71
2023/01/08 03:48:34;;;;;;;9.10;3.22;;;;;;;6.70;100.00;98026.69;5012799;28;20017;-72
2023/01/08 03:50:59;;;;;;;3.83;2.60;;;;;;;6.67;100.00;98008.25;5012466;28;20034;-70
2023/01/08 03:53:25;;;;;;;4.20;2.70;;;;;;;6.71;100.00;98017.59;4995405;28;20404;-70
2023/01/08 03:55:50;;;;;;;4.60;2.72;;;;;;;6.70;100.00;98010.56;5012778;28;20022;-69
2023/01/08 03:58:15;;;;;;;5.57;2.70;;;;;;;6.78;100.00;98013.06;5005236;28;20024;-71
2023/01/08 04:00:40;;;;;;;4.28;2.60;;;;;;;6.62;100.00;97985.69;5011456;28;20022;-70
2023/01/08 04:03:06;;;;;;;3.53;2.33;;;;;;;6.68;100.00;97990.28;5012840;28;20101;-70
2023/01/08 04:05:31;;;;;;;4.40;2.65;;;;;;;6.76;100.00;97999.03;5011294;28;20034;-74
2023/01/08 04:07:56;;;;;;;4.18;2.42;;;;;;;6.85;100.00;97998.84;4995238;28;20029;-69
2023/01/08 04:10:23;;;;;;;4.78;2.58;;;;;;;6.78;100.00;97980.00;4995295;28;20022;-71
2023/01/08 04:12:48;;;;;;;6.38;2.90;;;;;;;6.81;100.00;97979.59;5009535;28;20025;-70
2023/01/08 04:15:14;;;;;;;4.38;2.60;;;;;;;6.77;100.00;97983.72;5007589;28;20480;-69
2023/01/08 04:17:39;;;;;;;4.80;2.75;;;;;;;6.87;100.00;97988.75;5012409;28;20026;-70
2023/01/08 04:20:05;;;;;;;4.50;2.55;;;;;;;6.78;100.00;97988.88;5012718;28;20106;-70
2023/01/08 04:22:31;;;;;;;4.03;2.35;;;;;;;6.87;100.00;97984.19;5012726;28;20030;-70
2023/01/08 04:24:56;;;;;;;4.22;2.20;;;;;;;6.94;100.00;97985.06;5012164;28;20022;-71
2023/01/08 04:27:21;;;;;;;6.25;2.50;;;;;;;6.93;100.00;97985.25;5007815;28;20053;-72
2023/01/08 04:29:47;;;;;;;4.93;2.53;;;;;;;6.91;100.00;97973.84;5011503;28;20412;-70
2023/01/08 04:32:12;;;;;;;3.33;2.10;;;;;;;6.91;100.00;97980.03;5011974;28;20108;-70
2023/01/08 04:34:37;;;;;;;4.25;2.47;;;;;;;6.91;100.00;97973.84;5012621;28;20033;-70
2023/01/08 04:37:03;;;;;;;3.95;2.17;;;;;;;6.95;100.00;97962.50;5010383;28;20034;-70
2023/01/08 04:39:28;;;;;;;5.53;2.45;;;;;;;7.08;100.00;97979.72;5010379;28;20017;-73
2023/01/08 04:41:54;;;;;;;3.70;2.25;;;;;;;7.08;100.00;97985.94;5009455;28;20133;-70
2023/01/08 04:44:20;;;;;;;3.28;2.30;;;;;;;7.10;100.00;97980.31;5012963;28;20049;-70
2023/01/08 04:46:45;;;;;;;4.45;2.60;;;;;;;7.27;100.00;97994.28;5011078;28;20025;-69
2023/01/08 04:49:11;;;;;;;4.28;2.55;;;;;;;7.31;100.00;97985.59;5016544;28;20439;-71
2023/01/08 04:51:36;;;;;;;5.78;2.40;;;;;;;7.29;100.00;97978.75;5010842;28;20030;-72
2023/01/08 04:54:02;;;;;;;5.53;2.35;;;;;;;7.42;100.00;98000.31;5012453;28;20021;-70
2023/01/08 04:56:28;;;;;;;4.53;2.55;;;;;;;7.19;100.00;97979.97;5012638;28;20034;-71
2023/01/08 04:58:53;;;;;;;5.50;2.38;;;;;;;7.18;100.00;97989.06;4990481;28;20030;-70
2023/01/08 05:01:21;;;;;;;4.40;2.10;;;;;;;7.25;100.00;98008.72;5011555;28;20026;-71
2023/01/08 05:03:47;;;;;;;5.13;2.60;;;;;;;7.25;100.00;98008.72;4994963;28;20021;-69
2023/01/08 05:06:12;;;;;;;4.35;2.63;;;;;;;7.09;100.00;97998.34;5004869;28;20544;-69
2023/01/08 05:08:37;;;;;;;5.78;2.40;;;;;;;7.04;100.00;97995.41;5009023;28;20479;-72
2023/01/08 05:11:03;;;;;;;4.55;2.50;;;;;;;7.15;100.00;98013.69;5010658;28;20145;-71
2023/01/08 05:13:29;;;;;;;4.88;2.60;;;;;;;7.13;100.00;98004.16;4993415;28;20025;-70
2023/01/08 05:15:58;;;;;;;4.60;2.60;;;;;;;7.08;100.00;98012.81;5012626;28;20101;-71
2023/01/08 05:18:23;;;;;;;4.28;2.70;;;;;;;6.97;100.00;98010.72;5011506;28;20040;-73
2023/01/08 05:20:48;;;;;;;5.63;2.70;;;;;;;6.82;100.00;98004.63;5008283;28;20501;-70
2023/01/08 05:23:14;;;;;;;6.00;3.20;;;;;;;6.56;100.00;97972.03;5009253;28;20130;-72
2023/01/08 05:25:39;;;;;;;6.10;2.95;;;;;;;6.68;100.00;98006.41;5011592;28;20030;-71
2023/01/08 05:28:04;;;;;;;4.93;2.33;;;;;;;6.70;100.00;98025.84;5012002;28;20029;-71
2023/01/08 05:30:30;;;;;;;5.70;3.45;;;;;;;6.56;100.00;98015.03;5009173;28;20068;-70
2023/01/08 05:32:55;;;;;;;7.75;2.58;;;;;;;6.36;100.00;98014.88;5007636;28;20024;-70
2023/01/08 05:35:20;;;;;;;6.50;3.17;;;;;;;6.40;100.00;98044.88;5011043;28;20026;-70
2023/01/08 05:37:45;;;;;;;6.63;3.33;;;;;;;6.26;100.00;98038.59;5011364;28;20049;-72
2023/01/08 05:40:11;;;;;;;8.05;3.40;;;;;;;6.17;100.00;98037.06;5010622;28;20038;-71
2023/01/08 05:42:36;;;;;;;6.85;3.30;;;;;;;6.11;100.00;98032.47;5010600;28;20049;-70
2023/01/08 05:45:06;;;;;;;5.05;3.40;;;;;;;5.92;100.00;98028.53;5011775;28;20022;-72
2023/01/08 05:47:33;;;;;;;6.78;3.22;;;;;;;5.95;100.00;98046.16;5011968;28;20022;-70
2023/01/08 05:49:58;;;;;;;5.45;3.42;;;;;;;5.83;100.00;98041.25;5010896;28;20045;-71
2023/01/08 05:52:24;;;;;;;6.95;3.45;;;;;;;5.76;100.00;98028.81;4992440;28;20444;-70
2023/01/08 05:54:49;;;;;;;7.82;3.80;;;;;;;5.76;100.00;98050.28;5011733;28;20072;-70
2023/01/08 05:57:14;;;;;;;7.22;3.75;;;;;;;5.60;100.00;98027.19;5010119;28;20076;-70
2023/01/08 05:59:40;;;;;;;7.47;4.45;;;;;;;5.59;100.00;98036.28;5010125;28;20503;-70
2023/01/08 06:02:07;;;;;;;6.32;3.75;;;;;;;5.64;100.00;98055.31;5009407;28;20036;-70
2023/01/08 06:04:32;;;;;;;8.02;3.53;;;;;;;5.58;100.00;98046.19;5006529;28;20033;-71
2023/01/08 06:06:57;;;;;;;6.78;4.20;;;;;;;5.55;100.00;98053.78;5012241;28;20034;-70
2023/01/08 06:09:22;;;;;;;9.50;4.05;;;;;;;5.48;100.00;98049.16;5012443;28;20502;-71
2023/01/08 06:11:48;;;;;;;5.47;3.30;;;;;;;5.42;100.00;98023.13;5012006;28;20034;-70
2023/01/08 06:14:14;;;;;;;6.85;3.42;;;;;;;5.78;100.00;98070.53;5008301;28;20041;-70
2023/01/08 06:16:42;;;;;;;6.88;3.60;;;;;;;5.77;100.00;98060.84;4992623;28;20034;-70
2023/01/08 06:19:09;;;;;;;6.93;3.08;;;;;;;5.94;100.00;98066.78;5010201;28;20033;-70
2023/01/08 06:21:34;;;;;;;5.18;2.83;;;;;;;5.81;100.00;98029.88;5010472;28;20026;-70
2023/01/08 06:23:59;;;;;;;3.90;2.50;;;;;;;5.97;100.00;98041.41;4992944;28;20032;-70
2023/01/08 06:26:25;;;;;;;5.93;3.13;;;;;;;6.08;100.00;98054.34;5016967;28;20123;-71
2023/01/08 06:28:50;;;;;;;4.60;2.55;;;;;;;6.12;100.00;98047.56;5011670;28;20033;-70
2023/01/08 06:31:15;;;;;;;3.92;2.17;;;;;;;6.17;100.00;98041.59;5010942;28;20025;-70
2023/01/08 06:33:41;;;;;;;4.55;2.47;;;;;;;6.18;100.00;98032.50;5010304;28;20112;-70
2023/01/08 06:36:06;;;;;;;5.10;2.38;;;;;;;6.32;100.00;98043.19;5009764;28;20025;-70
2023/01/08 06:38:33;;;;;;;3.33;1.77;;;;;;;6.39;100.00;98053.13;5011481;28;20028;-71
2023/01/08 06:41:03;;;;;;;4.95;2.08;;;;;;;6.38;100.00;98044.25;5009346;28;20038;-69
2023/01/08 06:43:29;;;;;;;7.72;2.78;;;;;;;6.32;100.00;98039.66;4994477;28;20022;-70
2023/01/08 06:45:56;;;;;;;4.18;2.38;;;;;;;6.27;100.00;98040.25;5011840;28;20041;-71
2023/01/08 06:48:22;;;;;;;2.53;1.83;;;;;;;6.46;100.00;98070.16;5005180;28;20026;-72
2023/01/08 06:50:47;;;;;;;3.60;1.90;;;;;;;6.39;100.00;98040.53;4987922;28;20034;-75
2023/01/08 06:53:12;;;;;;;2.75;1.50;;;;;;;6.55;100.00;98051.00;5010092;28;20026;-82
2023/01/08 06:55:38;;;;;;;2.97;1.67;;;;;;;6.43;100.00;98031.06;5024002;28;20033;-84
2023/01/08 06:58:03;;;;;;;4.25;1.50;;;;;;;6.34;100.00;98022.31;5006817;28;20447;-83
2023/01/08 07:00:28;;;;;;;5.70;2.75;;;;;;;6.30;100.00;98029.09;5001127;28;20053;-84
2023/01/08 07:02:54;;;;;;;4.55;1.50;;;;;;;5.92;100.00;97967.63;5005118;28;20053;-84
2023/01/08 07:05:21;;;;;;;3.38;1.50;;;;;;;6.46;100.00;98060.22;5006909;28;20056;-82
2023/01/08 07:07:46;;;;;;;2.50;1.45;;;;;;;6.44;100.00;98045.31;5009390;28;20048;-85
2023/01/08 07:10:12;;;;;;;1.88;1.40;;;;;;;6.46;100.00;98052.16;5010750;28;20026;-81
2023/01/08 07:12:37;;;;;;;3.17;1.58;;;;;;;6.54;100.00;98040.44;5009421;23;20096;-63
2023/01/08 07:15:03;;;;;;;3.38;1.55;;;;;;;6.61;100.00;98035.13;4989198;28;20022;-63
2023/01/08 07:17:31;;;;;;;3.22;1.58;;;;;;;6.62;100.00;98058.28;4976717;28;20018;-64
2023/01/08 07:19:56;;;;;;;4.50;1.33;;;;;;;6.69;100.00;98061.84;4969983;28;20144;-63
2023/01/08 07:22:23;;;;;;;2.53;1.25;;;;;;;6.70;100.00;98052.72;4968857;28;20041;-63
2023/01/08 07:24:48;;;;;;;4.25;1.27;;;;;;;6.78;100.00;98049.88;4976624;28;20026;-63
2023/01/08 07:27:14;;;;;;;4.55;1.50;;;;;;;6.77;100.00;98054.44;4978642;28;20022;-63
2023/01/08 07:29:39;;;;;;;3.83;1.50;;;;;;;6.73;100.00;98053.19;4977224;28;20458;-63
2023/01/08 07:32:04;;;;;;;2.80;1.27;;;;;;;6.71;100.00;98065.16;4977365;28;20070;-63
2023/01/08 07:34:30;;;;;;;3.92;1.90;;;;;;;6.73;100.00;98063.09;4977595;28;20034;-63
2023/01/08 07:36:55;;;;;;;6.05;1.52;;;;;;;6.70;100.00;98063.47;4976125;28;20037;-62
2023/01/08 07:39:21;;;;;;;3.65;1.65;;;;;;;6.73;100.00;98055.88;4975676;28;20026;-62
2023/01/08 07:41:46;;;;;;;2.45;1.17;;;;;;;6.82;100.00;98061.91;4979344;28;20030;-61
2023/01/08 07:44:11;;;;;;;1.80;1.25;;;;;;;6.88;100.00;98055.75;4980509;28;20064;-61
2023/01/08 07:46:37;;;;;;;1.50;1.10;;;;;;;6.88;100.00;98054.91;4975402;28;20466;-61
2023/01/08 07:49:04;;;;;;;2.05;1.25;;;;;;;6.89;100.00;98056.56;4971563;28;20018;-61
2023/01/08 07:51:29;;;;;;;2.70;1.30;;;;;;;6.88;100.00;98060.28;4973393;28;20018;-61
2023/01/08 07:53:55;;;;;;;4.30;1.40;;;;;;;6.88;100.00;98057.59;4972767;28;20478;-61
2023/01/08 07:56:21;;;;;;;2.30;1.25;;;;;;;6.96;100.00;98054.75;4968352;28;20379;-61
2023/01/08 07:58:47;;;;;;;1.75;1.10;;;;;;;6.99;100.00;98047.09;4973555;28;20113;-61
2023/01/08 08:01:12;;;;;;;2.88;1.42;;;;;;;6.98;100.00;98053.53;4975637;28;20538;-61
2023/01/08 08:03:39;;;;;;;3.28;1.33;;;;;;;6.94;100.00;98054.97;4975524;28;20037;-63
2023/01/08 08:06:05;;;;;;;2.05;1.30;;;;;;;6.95;100.00;98059.31;4974340;28;20153;-61
2023/01/08 08:08:31;;;;;;;1.83;1.15;;;;;;;6.94;100.00;98060.34;4995424;28;20073;-61
2023/01/08 08:10:57;;;;;;;1.95;1.10;;;;;;;6.94;100.00;98051.41;4973709;28;20038;-61
2023/01/08 08:13:22;;;;;;;2.45;1.30;;;;;;;6.95;100.00;98053.09;4974284;28;20038;-61
2023/01/08 08:15:48;;;;;;;2.95;1.05;;;;;;;7.00;100.00;98054.16;4992051;28;20030;-61
2023/01/08 08:18:13;;;;;;;1.95;1.10;;;;;;;7.00;100.00;98053.34;4977185;28;20069;-62
2023/01/08 08:20:39;;;;;;;3.67;1.10;;;;;;;6.96;100.00;98057.44;4976350;28;20022;-62
2023/01/08 08:23:12;;;;;;;1.27;0.85;;;;;;;6.98;100.00;98055.38;4990923;28;20031;-62
2023/01/08 08:25:38;;;;;;;2.60;0.95;;;;;;;6.96;100.00;98052.06;4978493;28;20038;-61
2023/01/08 08:28:04;;;;;;;5.07;1.00;;;;;;;6.98;100.00;98061.59;4969033;28;20025;-61
2023/01/08 08:30:32;;;;;;;1.88;1.00;;;;;;;6.99;100.00;98046.28;4992417;28;20023;-62
2023/01/08 08:33:00;;;;;;;1.88;1.00;;;;;;;6.98;100.00;98050.84;4969716;28;20026;-61
2023/01/08 08:35:26;;;;;;;1.65;1.00;;;;;;;6.96;100.00;98046.69;4977436;28;20018;-61
2023/01/08 08:37:53;;;;;;;1.95;1.00;;;;;;;6.96;100.00;98049.38;4976616;28;20126;-61
2023/01/08 08:40:18;;;;;;;3.05;1.20;;;;;;;6.97;100.00;98043.81;4976189;28;20026;-61
2023/01/08 08:42:44;;;;;;;2.72;1.80;;;;;;;6.99;100.00;98040.91;4974494;28;20026;-61
2023/01/08 08:45:09;;;;;;;4.70;1.30;;;;;;;6.97;100.00;98037.59;4975578;28;20103;-61
2023/01/08 08:47:35;;;;;;;2.50;1.02;;;;;;;6.98;100.00;98039.25;4971675;28;20643;-61
2023/01/08 08:50:01;;;;;;;1.88;1.17;;;;;;;7.02;100.00;98038.66;4973096;28;20106;-62
2023/01/08 08:52:26;;;;;;;4.03;1.73;;;;;;;7.00;100.00;98038.03;4975934;28;20030;-62
2023/01/08 08:54:52;;;;;;;3.67;1.58;;;;;;;7.03;100.00;98042.19;4971357;28;20549;-61
2023/01/08 08:57:17;;;;;;;3.63;1.67;;;;;;;7.05;100.00;98031.19;4965603;28;20038;-61
2023/01/08 08:59:43;;;;;;;2.47;1.50;;;;;;;7.02;100.00;98035.97;4967966;28;20057;-66
2023/01/08 09:02:10;;;;;;;2.38;1.50;;;;;;;7.04;100.00;98027.69;4977077;28;20169;-61
2023/01/08 09:04:35;;;;;;;4.05;1.27;;;;;;;6.97;100.00;98024.16;4971325;28;20026;-61
2023/01/08 09:07:01;;;;;;;1.75;0.98;;;;;;;7.02;100.00;98032.44;4974423;28;20440;-63
2023/01/08 09:09:27;;;;;;;1.92;1.15;;;;;;;7.03;100.00;98034.09;4970532;28;20026;-61
2023/01/08 09:11:53;;;;;;;2.90;1.42;;;;;;;7.05;100.00;98034.75;4964796;28;20042;-61
2023/01/08 09:14:19;;;;;;;2.20;1.20;;;;;;;7.07;100.00;98024.59;4972002;28;20060;-61
2023/01/08 09:16:45;;;;;;;1.80;1.02;;;;;;;7.07;100.00;98029.97;4972037;28;20034;-61
2023/01/08 09:19:10;;;;;;;4.88;1.45;;;;;;;7.05;100.00;98023.13;4984200;28;20367;-62
2023/01/08 09:21:35;;;;;;;2.05;1.20;;;;;;;7.05;100.00;98024.00;4974926;28;20037;-61
2023/01/08 09:24:01;;;;;;;1.38;0.95;;;;;;;7.09;100.00;98025.22;4975921;28;20417;-62
2023/01/08 09:26:28;;;;;;;1.58;0.90;;;;;;;6.99;100.00;98001.38;4977116;28;20117;-62
2023/01/08 09:28:56;;;;;;;2.72;1.40;;;;;;;7.13;100.00;98023.81;4970429;28;20030;-61
2023/01/08 09:31:22;;;;;;;3.15;1.13;;;;;;;7.12;100.00;98030.19;4971304;28;20018;-62
2023/01/08 09:33:47;;;;;;;4.32;1.30;;;;;;;7.13;100.00;98023.00;4975467;28;20496;-62
2023/01/08 09:36:13;;;;;;;4.05;1.08;;;;;;;7.13;100.00;98023.81;4974486;28;20482;-61
2023/01/08 09:38:39;;;;;;;2.25;1.45;;;;;;;7.14;100.00;98027.31;4980003;28;20026;-60
2023/01/08 09:41:16;;;;;;;4.43;1.77;;;;;;;7.14;100.00;98020.09;4975008;28;20022;-60
2023/01/08 09:43:45;;;;;;;1.65;1.10;;;;;;;7.17;100.00;98006.22;4972777;28;20031;-60
2023/01/08 09:46:14;;;;;;;4.50;1.25;;;;;;;7.19;100.00;98006.84;4972365;28;20053;-62
2023/01/08 09:48:40;;;;;;;1.48;0.95;;;;;;;7.20;100.00;98019.28;4968044;28;20035;-63
2023/01/08 09:51:14;;;;;;;3.30;1.20;;;;;;;7.19;100.00;98006.03;4972223;28;20456;-62
2023/01/08 09:53:42;;;;;;;1.65;1.30;;;;;;;7.20;100.00;98008.53;4973051;28;20030;-62
2023/01/08 09:56:17;;;;;;;4.65;1.30;;;;;;;7.26;100.00;98004.22;4968626;28;20461;-63
2023/01/08 09:58:59;;;;;;;3.15;1.27;;;;;;;7.28;100.00;98007.50;4972590;28;20038;-63
2023/01/08 10:01:29;;;;;;;2.80;1.20;;;;;;;7.29;100.00;98013.75;4970045;28;20117;-63
2023/01/08 10:04:13;;;;;;;3.13;1.45;;;;;;;7.30;100.00;97999.25;4972730;28;20206;-63
2023/01/08 10:06:52;;;;;;;2.92;1.30;;;;;;;7.33;100.00;97999.66;4972215;28;20092;-63
2023/01/08 10:09:22;;;;;;;4.07;1.40;;;;;;;7.33;100.00;98007.72;4977807;28;20034;-62
2023/01/08 10:11:49;;;;;;;4.15;1.30;;;;;;;7.35;100.00;98002.16;4966746;28;20034;-63
2023/01/08 10:14:27;;;;;;;2.90;1.40;;;;;;;7.36;100.00;98003.81;4971851;28;20034;-63
2023/01/08 10:17:22;;;;;;;4.72;1.60;;;;;;;7.34;100.00;98017.47;4967582;28;20033;-62
2023/01/08 10:19:48;;;;;;;6.93;1.67;;;;;;;7.35;100.00;98012.91;4972526;28;20479;-62
2023/01/08 10:22:19;;;;;;;3.45;1.63;;;;;;;7.35;100.00;98004.84;4976651;28;20034;-63
2023/01/08 10:24:45;;;;;;;2.13;1.10;;;;;;;7.43;100.00;98010.88;4972093;28;20554;-62
2023/01/08 10:27:28;;;;;;;4.00;1.75;;;;;;;7.43;100.00;97996.59;4978241;28;20027;-62
2023/01/08 10:30:04;;;;;;;2.63;1.83;;;;;;;7.44;100.00;98003.63;4977143;28;20026;-63
2023/01/08 10:32:33;;;;;;;2.83;1.75;;;;;;;7.47;100.00;97995.97;4978849;28;20034;-63
2023/01/08 10:35:04;;;;;;;3.60;1.83;;;;;;;7.51;100.00;97985.63;4977563;28;20038;-63
2023/01/08 10:37:41;;;;;;;5.65;1.80;;;;;;;7.53;100.00;97982.75;4971067;28;20363;-63
2023/01/08 10:40:42;;;;;;;2.55;1.80;;;;;;;7.58;100.00;97974.88;4974675;28;20054;-63
2023/01/08 10:43:13;;;;;;;4.22;2.03;;;;;;;7.61;100.00;97979.84;4959535;28;20046;-63
2023/01/08 10:45:40;;;;;;;3.92;2.15;;;;;;;7.62;100.00;97979.66;4961257;28;20034;-62
2023/01/08 10:48:14;;;;;;;3.55;2.13;;;;;;;7.65;100.00;97978.41;4971490;28;20398;-63
2023/01/08 10:50:39;;;;;;;3.47;1.70;;;;;;;7.77;100.00;97962.47;4970663;28;20026;-62
2023/01/08 10:53:20;;;;;;;4.22;1.98;;;;;;;7.80;100.00;97962.88;4971911;28;20092;-62
2023/01/08 10:55:57;;;;;;;3.53;1.90;;;;;;;7.88;100.00;97961.84;4967611;28;20023;-63
2023/01/08 10:58:23;;;;;;;5.30;2.35;;;;;;;7.93;100.00;97961.25;4970239;28;20025;-63
2023/01/08 11:00:49;;;;;;;11.68;4.60;;;;;;;7.99;100.00;97944.25;4970508;28;20015;-63
2023/01/08 11:03:41;;;;;;;9.15;3.58;;;;;;;8.02;100.00;97952.75;4986870;28;20113;-63
2023/01/08 11:06:18;;;;;;;4.70;2.42;;;;;;;8.06;100.00;97940.50;4971113;28;20101;-63
2023/01/08 11:08:55;;;;;;;4.53;2.00;;;;;;;8.05;100.00;97952.34;4970379;28;20042;-63
2023/01/08 11:11:23;;;;;;;4.13;1.65;;;;;;;8.06;100.00;97950.47;4968138;28;20476;-71
2023/01/08 11:14:14;;;;;;;2.47;1.60;;;;;;;8.11;100.00;97939.88;4974111;28;20038;-63
2023/01/08 11:16:41;;;;;;;3.22;1.23;;;;;;;8.16;100.00;97944.66;4975382;28;20030;-63
2023/01/08 11:19:26;;;;;;;3.03;1.45;;;;;;;8.18;100.00;97932.63;4976257;28;20015;-63
2023/01/08 11:22:22;;;;;;;2.13;1.42;;;;;;;8.25;100.00;97938.84;4969214;28;20528;-63
2023/01/08 11:24:52;;;;;;;3.38;1.27;;;;;;;8.33;100.00;97937.78;4989234;28;20470;-65
2023/01/08 11:27:22;;;;;;;;;;;;;;;8.39;100.00;97937.00;4978173;28;20164;-62
2023/01/08 11:29:59;;;;;;;1.60;0.70;;;;;;;8.39;100.00;97928.91;4974403;28;19932;-62
2023/01/08 11:32:53;;;;;;;1.33;0.80;;;;;;;8.38;100.00;97915.59;4974790;28;20069;-63
2023/01/08 11:35:24;;;;;;;2.58;1.30;;;;;;;8.46;100.00;97918.09;4975422;28;20374;-63
2023/01/08 11:37:52;;;;;;;1.65;1.00;;;;;;;8.40;100.00;97916.25;4970885;28;20030;-63
2023/01/08 11:40:33;;;;;;;1.58;0.90;;;;;;;8.51;100.00;97905.66;4973981;28;20030;-63